Time;durP1;ratioP1;P1;durP2;ratioP2;P2;SDS_P1;SDS_P2;PMS_P1;PMS_P2;Temp;Humidity;BMP_temperature;BMP_pressure;BME280_temperature;BME280_humidity;BME280_pressure;Samples;Min_cycle;Max_cycle;Signal;HPM_P1;HPM_P2
2021/12/18 00:02:13;;;;;;;7.20;5.83;;;7.50;99.90;;;;;;5012604;28;20227;-74
2021/12/18 00:04:42;;;;;;;9.47;5.77;;;7.40;99.90;;;;;;5030110;28;20315;-74
2021/12/18 00:07:07;;;;;;;8.47;5.73;;;7.40;99.90;;;;;;5031686;28;20458;-74
2021/12/18 00:09:34;;;;;;;7.87;5.97;;;7.40;99.90;;;;;;5022622;28;20455;-73
2021/12/18 00:12:01;;;;;;;7.60;6.13;;;7.40;99.90;;;;;;5030015;28;20359;-74
2021/12/18 00:14:27;;;;;;;7.80;6.20;;;7.40;99.90;;;;;;5012738;28;20487;-74
2021/12/18 00:16:53;;;;;;;10.90;6.27;;;7.40;99.90;;;;;;5029944;28;20464;-74
2021/12/18 00:19:25;;;;;;;11.83;5.60;;;7.40;99.90;;;;;;5030567;28;20469;-74
2021/12/18 00:21:52;;;;;;;10.50;6.60;;;7.30;99.90;;;;;;5029604;28;20466;-74
2021/12/18 00:24:19;;;;;;;6.33;4.80;;;7.30;99.90;;;;;;5012793;28;20451;-74
2021/12/18 00:26:45;;;;;;;7.77;6.10;;;7.20;99.90;;;;;;5029867;28;20459;-72
2021/12/18 00:29:12;;;;;;;9.47;6.40;;;7.20;99.90;;;;;;5012963;28;20451;-73
2021/12/18 00:31:37;;;;;;;11.47;6.07;;;7.20;99.90;;;;;;5011606;28;20469;-76
2021/12/18 00:34:03;;;;;;;9.40;5.80;;;7.20;99.90;;;;;;5013932;28;20225;-74
2021/12/18 00:36:29;;;;;;;7.03;5.00;;;7.20;99.90;;;;;;4992070;28;20217;-73
2021/12/18 00:38:54;;;;;;;8.37;5.67;;;7.10;99.90;;;;;;5009506;28;20232;-74
2021/12/18 00:44:01;;;;;;;7.67;4.93;;;7.10;99.90;;;;;;5009315;28;20772;-73
2021/12/18 00:46:30;;;;;;;8.97;6.17;;;7.10;99.90;;;;;;5009998;28;20467;-73
2021/12/18 00:48:55;;;;;;;14.57;6.60;;;7.00;99.90;;;;;;4992306;28;20490;-73
2021/12/18 00:51:21;;;;;;;8.33;5.23;;;6.90;99.90;;;;;;4992413;28;20456;-74
2021/12/18 00:53:47;;;;;;;8.47;6.87;;;6.90;99.90;;;;;;5009844;28;20239;-73
2021/12/18 00:56:13;;;;;;;9.20;5.43;;;6.90;99.90;;;;;;5038623;28;20216;-73
2021/12/18 00:58:39;;;;;;;9.07;6.50;;;6.90;99.90;;;;;;5036430;28;20606;-75
2021/12/18 01:01:08;;;;;;;10.87;6.50;;;6.90;99.90;;;;;;5029224;28;20269;-73
2021/12/18 01:03:35;;;;;;;11.60;6.83;;;6.90;99.90;;;;;;5012525;28;20460;-73
2021/12/18 01:06:01;;;;;;;11.63;7.30;;;6.90;99.90;;;;;;5011407;28;20440;-73
2021/12/18 01:08:27;;;;;;;7.50;5.50;;;6.90;99.90;;;;;;5028409;28;20532;-74
2021/12/18 01:13:48;;;;;;;10.10;5.97;;;6.90;99.90;;;;;;5049662;28;20274;-73
2021/12/18 01:16:20;;;;;;;9.90;5.33;;;6.90;99.90;;;;;;5032047;28;20450;-74
2021/12/18 01:24:14;;;;;;;7.43;5.37;;;6.80;99.90;;;;;;5030880;28;20564;-73
2021/12/18 01:26:40;;;;;;;7.53;6.00;;;6.80;99.90;;;;;;5011686;28;20967;-75
2021/12/18 01:29:06;;;;;;;8.00;5.37;;;6.70;99.90;;;;;;5029730;28;20733;-71
2021/12/18 01:31:32;;;;;;;9.10;6.00;;;6.70;99.90;;;;;;5029878;28;20541;-75
2021/12/18 01:33:58;;;;;;;11.67;6.13;;;6.70;99.90;;;;;;4995687;28;20235;-73
2021/12/18 01:36:23;;;;;;;6.60;4.53;;;6.60;99.90;;;;;;5028026;28;20251;-73
2021/12/18 01:38:49;;;;;;;8.10;5.27;;;6.60;99.90;;;;;;5011402;28;20315;-73
2021/12/18 01:41:16;;;;;;;7.60;6.33;;;6.60;99.90;;;;;;5028415;28;20224;-74
2021/12/18 01:54:11;;;;;;;8.30;5.77;;;6.50;99.90;;;;;;5015420;28;20457;-73
2021/12/18 01:56:37;;;;;;;7.70;4.90;;;6.50;99.90;;;;;;5015609;28;20466;-73
2021/12/18 01:59:03;;;;;;;8.53;5.77;;;6.40;99.90;;;;;;5014424;28;20455;-76
2021/12/18 02:01:29;;;;;;;7.47;5.10;;;6.40;99.90;;;;;;5015159;28;20221;-73
2021/12/18 02:03:55;;;;;;;8.70;5.87;;;6.30;99.90;;;;;;5032874;28;20306;-70
2021/12/18 02:06:22;;;;;;;7.27;5.07;;;6.30;99.90;;;;;;5033206;28;20447;-73
2021/12/18 02:08:49;;;;;;;9.27;6.23;;;6.30;99.90;;;;;;5004235;28;20219;-73
2021/12/18 02:11:27;;;;;;;7.63;5.43;;;6.30;99.90;;;;;;5023566;28;20448;-72
2021/12/18 02:14:09;;;;;;;7.50;5.23;;;6.30;99.90;;;;;;5014880;28;20463;-73
2021/12/18 02:19:46;;;;;;;6.80;4.43;;;6.20;99.90;;;;;;5032221;28;20551;-75
2021/12/18 02:22:14;;;;;;;8.10;5.17;;;6.20;99.90;;;;;;5014637;28;20833;-73
2021/12/18 02:24:39;;;;;;;6.80;5.77;;;6.20;99.90;;;;;;5031799;28;20466;-72
2021/12/18 02:27:05;;;;;;;7.40;5.80;;;6.20;99.90;;;;;;5014553;28;20447;-73
2021/12/18 02:29:32;;;;;;;8.60;5.80;;;6.20;99.90;;;;;;5014968;28;20242;-74
2021/12/18 02:31:58;;;;;;;9.17;5.50;;;6.20;99.90;;;;;;5031775;28;20296;-72
2021/12/18 02:34:29;;;;;;;10.33;5.93;;;6.20;99.90;;;;;;5014831;28;21130;-73
2021/12/18 02:37:01;;;;;;;8.40;4.90;;;6.20;99.90;;;;;;5014378;28;20232;-74
2021/12/18 02:42:08;;;;;;;7.97;5.47;;;6.20;99.90;;;;;;5030208;28;20472;-72
2021/12/18 02:44:35;;;;;;;6.90;4.97;;;6.20;99.90;;;;;;5032476;28;20675;-72
2021/12/18 02:47:02;;;;;;;6.77;5.03;;;6.20;99.90;;;;;;5014428;28;20621;-73
2021/12/18 02:49:28;;;;;;;8.50;5.67;;;6.20;99.90;;;;;;5014571;28;20509;-73
2021/12/18 02:51:54;;;;;;;9.43;5.63;;;6.20;99.90;;;;;;5030995;28;20459;-74
2021/12/18 02:54:20;;;;;;;8.57;5.10;;;6.10;99.90;;;;;;5014462;28;20529;-73
2021/12/18 02:56:45;;;;;;;7.90;4.80;;;6.10;99.90;;;;;;5013925;28;20231;-74
2021/12/18 02:59:11;;;;;;;5.77;4.40;;;6.10;99.90;;;;;;5030318;28;20225;-73
2021/12/18 03:01:40;;;;;;;7.63;4.77;;;6.10;99.90;;;;;;5013337;28;20224;-71
2021/12/18 03:04:16;;;;;;;7.77;5.13;;;6.10;99.90;;;;;;5013775;28;20641;-73
2021/12/18 03:06:46;;;;;;;7.80;5.03;;;6.10;99.90;;;;;;5016394;28;20806;-73
2021/12/18 03:25:24;;;;;;;5.77;4.17;;;6.00;99.90;;;;;;5029578;28;20556;-73
2021/12/18 03:27:52;;;;;;;6.27;4.47;;;6.00;99.90;;;;;;5030834;28;20463;-73
2021/12/18 03:30:18;;;;;;;7.17;4.50;;;6.00;99.90;;;;;;5013708;28;20467;-74
2021/12/18 03:32:45;;;;;;;5.73;4.10;;;5.90;99.90;;;;;;5012682;28;20470;-73
2021/12/18 03:35:11;;;;;;;8.17;4.40;;;5.90;99.90;;;;;;5017817;28;20451;-74
2021/12/18 03:37:38;;;;;;;8.27;4.40;;;5.90;99.90;;;;;;5013800;28;20529;-72
2021/12/18 03:40:09;;;;;;;7.43;4.57;;;5.80;99.90;;;;;;5030943;28;21066;-72
2021/12/18 03:42:35;;;;;;;6.47;3.80;;;5.80;99.90;;;;;;5013965;28;20455;-75
2021/12/18 03:45:02;;;;;;;7.50;4.00;;;5.80;99.90;;;;;;5029744;28;20451;-72
2021/12/18 03:47:27;;;;;;;5.50;4.40;;;5.80;99.90;;;;;;5013474;28;20451;-73
2021/12/18 03:49:53;;;;;;;5.03;3.23;;;5.80;99.90;;;;;;5013173;28;20881;-73
2021/12/18 03:52:19;;;;;;;7.90;4.50;;;5.80;99.90;;;;;;5013265;28;20221;-74
2021/12/18 03:54:44;;;;;;;6.10;4.63;;;5.80;99.90;;;;;;5012339;28;20228;-75
2021/12/18 03:57:10;;;;;;;9.93;5.57;;;5.80;99.90;;;;;;5013114;28;20258;-74
2021/12/18 03:59:35;;;;;;;6.90;4.20;;;5.70;99.90;;;;;;5013059;28;20289;-72
2021/12/18 04:02:01;;;;;;;7.70;5.00;;;5.80;99.90;;;;;;4996472;28;20224;-73
2021/12/18 04:04:27;;;;;;;6.47;4.20;;;5.70;99.90;;;;;;5013128;28;20235;-74
2021/12/18 04:06:53;;;;;;;5.80;4.40;;;5.70;99.90;;;;;;5034905;28;20212;-75
2021/12/18 04:09:19;;;;;;;8.77;5.50;;;5.70;99.90;;;;;;5029557;28;20687;-74
2021/12/18 04:11:44;;;;;;;10.20;4.80;;;5.70;99.90;;;;;;5050469;28;20257;-74
2021/12/18 04:14:11;;;;;;;6.27;4.43;;;5.70;99.90;;;;;;5013210;28;20232;-73
2021/12/18 04:16:38;;;;;;;8.57;5.10;;;5.70;99.90;;;;;;4996500;28;20522;-72
2021/12/18 04:19:04;;;;;;;5.40;3.77;;;5.70;99.90;;;;;;5012645;28;20982;-72
2021/12/18 04:21:31;;;;;;;8.60;5.30;;;5.70;99.90;;;;;;5030642;28;20454;-74
2021/12/18 04:23:58;;;;;;;10.23;5.30;;;5.70;99.90;;;;;;5011758;28;20463;-72
2021/12/18 04:26:23;;;;;;;6.03;4.60;;;5.70;99.90;;;;;;5012613;28;20448;-73
2021/12/18 04:28:49;;;;;;;10.13;4.80;;;5.60;99.90;;;;;;5009099;28;20470;-72
2021/12/18 04:31:16;;;;;;;6.60;4.47;;;5.60;99.90;;;;;;5010524;28;20253;-72
2021/12/18 04:33:41;;;;;;;5.30;4.00;;;5.60;99.90;;;;;;4997255;28;20228;-72
2021/12/18 04:36:07;;;;;;;8.47;4.83;;;5.70;99.90;;;;;;5012628;28;20901;-73
2021/12/18 04:38:33;;;;;;;7.03;4.83;;;5.60;99.90;;;;;;5012747;28;20291;-73
2021/12/18 04:41:00;;;;;;;8.20;4.83;;;5.70;99.90;;;;;;5029849;28;20243;-73
2021/12/18 04:43:26;;;;;;;9.13;5.50;;;5.70;99.90;;;;;;5030192;28;20216;-74
2021/12/18 04:45:52;;;;;;;5.77;4.23;;;5.70;99.90;;;;;;5029715;28;20539;-75
2021/12/18 04:48:18;;;;;;;6.40;4.53;;;5.60;99.90;;;;;;5013047;28;20530;-73
2021/12/18 04:50:43;;;;;;;10.27;5.17;;;5.70;99.90;;;;;;5012314;28;20749;-73
2021/12/18 04:53:10;;;;;;;7.00;4.90;;;5.70;99.90;;;;;;5011772;28;20214;-73
2021/12/18 04:55:36;;;;;;;9.23;6.23;;;5.70;99.90;;;;;;5012053;28;20209;-73
2021/12/18 04:58:02;;;;;;;7.90;4.97;;;5.70;99.90;;;;;;5011963;28;20815;-72
2021/12/18 05:00:37;;;;;;;10.53;5.60;;;5.70;99.90;;;;;;5012804;28;20463;-73
2021/12/18 05:03:06;;;;;;;7.20;5.03;;;5.70;99.90;;;;;;5028849;28;20449;-74
2021/12/18 05:05:32;;;;;;;9.20;5.37;;;5.60;99.90;;;;;;5030110;28;20868;-73
2021/12/18 05:07:58;;;;;;;9.23;5.47;;;5.70;99.90;;;;;;5017093;28;20450;-73
2021/12/18 05:10:24;;;;;;;7.33;5.50;;;5.70;99.90;;;;;;5024509;28;20561;-73
2021/12/18 05:12:49;;;;;;;10.93;5.90;;;5.70;99.90;;;;;;5041139;28;20637;-73
2021/12/18 05:15:15;;;;;;;6.63;4.40;;;5.70;99.90;;;;;;5028165;28;20235;-74
2021/12/18 05:17:41;;;;;;;8.50;5.27;;;5.70;99.90;;;;;;5012577;28;20251;-73
2021/12/18 05:20:07;;;;;;;6.47;4.40;;;5.70;99.90;;;;;;5012536;28;20235;-74
2021/12/18 05:22:33;;;;;;;8.20;5.40;;;5.70;99.90;;;;;;5031847;28;20308;-75
2021/12/18 05:24:59;;;;;;;5.70;4.57;;;5.70;99.90;;;;;;5032397;28;20530;-72
2021/12/18 05:27:24;;;;;;;7.90;4.70;;;5.70;99.90;;;;;;5016133;28;20648;-73
2021/12/18 05:29:50;;;;;;;10.10;6.33;;;5.70;99.90;;;;;;5016012;28;20692;-73
2021/12/18 05:32:16;;;;;;;7.40;4.80;;;5.70;99.90;;;;;;5032599;28;20232;-73
2021/12/18 05:34:41;;;;;;;8.70;5.40;;;5.70;99.90;;;;;;5015164;28;20224;-73
2021/12/18 05:39:42;;;;;;;8.63;5.23;;;5.70;99.90;;;;;;5031838;28;20282;-73
2021/12/18 05:42:08;;;;;;;7.27;5.23;;;5.70;99.90;;;;;;5033644;28;20458;-70
2021/12/18 05:44:35;;;;;;;8.67;5.10;;;5.70;99.90;;;;;;5031544;28;20692;-73
2021/12/18 05:47:00;;;;;;;9.10;5.27;;;5.70;99.90;;;;;;5031648;28;20550;-71
2021/12/18 05:49:26;;;;;;;12.17;6.33;;;5.70;99.90;;;;;;5012490;28;21003;-73
2021/12/18 05:51:52;;;;;;;9.87;5.43;;;5.70;99.90;;;;;;4995873;28;20693;-73
2021/12/18 05:54:17;;;;;;;9.83;5.73;;;5.70;99.90;;;;;;5013225;28;20236;-75
2021/12/18 05:56:43;;;;;;;9.87;6.50;;;5.70;99.90;;;;;;5031993;28;20213;-74
2021/12/18 05:59:09;;;;;;;13.90;6.37;;;5.70;99.90;;;;;;5015308;28;20251;-74
2021/12/18 06:01:35;;;;;;;13.90;6.53;;;5.70;99.90;;;;;;5015595;28;20220;-73
2021/12/18 06:04:01;;;;;;;9.83;6.00;;;5.70;99.90;;;;;;5015427;28;20224;-73
2021/12/18 06:06:26;;;;;;;13.13;6.33;;;5.70;99.90;;;;;;5031390;28;20216;-73
2021/12/18 06:08:52;;;;;;;11.37;5.63;;;5.70;99.90;;;;;;5032021;28;20232;-72
2021/12/18 06:11:21;;;;;;;11.07;5.73;;;5.60;99.90;;;;;;5031480;28;20235;-73
2021/12/18 06:13:49;;;;;;;12.70;6.87;;;5.70;99.90;;;;;;5014861;28;20521;-73
2021/12/18 06:16:16;;;;;;;14.73;6.90;;;5.60;99.90;;;;;;5032238;28;20803;-73
2021/12/18 06:18:44;;;;;;;12.33;6.90;;;5.60;99.90;;;;;;5014365;28;20524;-74
2021/12/18 06:21:15;;;;;;;12.03;6.07;;;5.60;99.90;;;;;;5015102;28;20454;-73
2021/12/18 06:23:48;;;;;;;15.00;7.30;;;5.60;99.90;;;;;;5032995;28;20467;-75
2021/12/18 06:26:15;;;;;;;12.00;5.60;;;5.60;99.90;;;;;;4998707;28;20522;-73
2021/12/18 06:28:41;;;;;;;13.47;6.53;;;5.60;99.90;;;;;;5031596;28;20451;-74
2021/12/18 06:31:06;;;;;;;12.57;6.90;;;5.60;99.90;;;;;;5031658;28;20792;-76
2021/12/18 06:33:32;;;;;;;11.87;6.00;;;5.60;99.90;;;;;;5030242;28;20221;-74
2021/12/18 06:35:58;;;;;;;9.80;6.37;;;5.60;99.90;;;;;;5012608;28;20270;-72
2021/12/18 06:38:25;;;;;;;15.00;6.37;;;5.70;99.90;;;;;;5011608;28;20765;-73
2021/12/18 06:40:50;;;;;;;12.43;6.60;;;5.70;99.90;;;;;;5012282;28;20556;-75
2021/12/18 06:43:16;;;;;;;14.47;7.23;;;5.70;99.90;;;;;;4995264;28;20535;-74
2021/12/18 06:45:42;;;;;;;12.83;6.77;;;5.70;99.90;;;;;;4997504;28;20659;-73
2021/12/18 06:48:08;;;;;;;13.37;7.30;;;5.70;99.90;;;;;;5014335;28;20231;-73
2021/12/18 06:50:35;;;;;;;14.90;8.10;;;5.70;99.90;;;;;;5014324;28;20225;-74
2021/12/18 06:53:01;;;;;;;11.20;6.70;;;5.70;99.90;;;;;;5013896;28;20464;-74
2021/12/18 06:55:27;;;;;;;12.47;6.67;;;5.70;99.90;;;;;;5013957;28;20513;-74
2021/12/18 06:57:53;;;;;;;11.07;6.87;;;5.70;99.90;;;;;;5013783;28;20462;-74
2021/12/18 07:00:21;;;;;;;10.47;6.40;;;5.70;99.90;;;;;;5014585;28;20467;-74
2021/12/18 07:02:47;;;;;;;11.67;6.27;;;5.70;99.90;;;;;;5030578;28;20716;-74
2021/12/18 07:05:13;;;;;;;12.90;7.27;;;5.70;99.90;;;;;;5014274;28;20461;-73
2021/12/18 07:07:41;;;;;;;13.80;6.60;;;5.70;99.90;;;;;;5013398;28;20495;-74
2021/12/18 07:10:09;;;;;;;12.93;6.27;;;5.70;99.90;;;;;;4997252;28;20487;-73
2021/12/18 07:12:35;;;;;;;14.73;7.90;;;5.80;99.90;;;;;;5013958;28;20479;-73
2021/12/18 07:15:06;;;;;;;15.00;7.87;;;5.80;99.90;;;;;;5013325;28;20494;-73
2021/12/18 07:17:32;;;;;;;11.07;6.70;;;5.80;99.90;;;;;;5017045;28;20221;-72
2021/12/18 07:19:57;;;;;;;16.23;8.23;;;5.80;99.90;;;;;;5013313;28;20474;-73
2021/12/18 07:22:23;;;;;;;15.93;8.30;;;5.80;99.90;;;;;;5013831;28;20459;-74
2021/12/18 07:24:49;;;;;;;14.70;7.07;;;5.80;99.90;;;;;;5013350;28;20229;-74
2021/12/18 07:27:14;;;;;;;12.73;7.67;;;5.70;99.90;;;;;;5014222;28;20711;-74
2021/12/18 07:29:40;;;;;;;14.07;7.40;;;5.80;99.90;;;;;;5031687;28;20720;-75
2021/12/18 07:32:06;;;;;;;15.90;8.03;;;5.80;99.90;;;;;;5013332;28;20220;-73
2021/12/18 07:34:32;;;;;;;14.50;7.73;;;5.80;99.90;;;;;;5030324;28;20224;-74
2021/12/18 07:36:58;;;;;;;15.57;9.40;;;5.80;99.90;;;;;;5030204;28;20223;-73
2021/12/18 07:39:24;;;;;;;19.57;9.83;;;5.80;99.90;;;;;;5029817;28;20475;-74
2021/12/18 07:41:49;;;;;;;16.60;8.87;;;5.80;99.90;;;;;;5013064;28;20716;-74
2021/12/18 07:44:15;;;;;;;12.37;7.97;;;5.80;99.90;;;;;;5013719;28;20220;-73
2021/12/18 07:46:41;;;;;;;13.93;7.80;;;5.80;99.90;;;;;;5029661;28;20600;-73
2021/12/18 07:49:08;;;;;;;13.27;7.13;;;5.80;99.90;;;;;;5013107;28;20216;-72
2021/12/18 07:51:34;;;;;;;10.57;7.00;;;5.80;99.90;;;;;;5031019;28;20223;-73
2021/12/18 07:53:59;;;;;;;12.17;7.53;;;5.80;99.90;;;;;;5012932;28;20846;-72
2021/12/18 07:56:25;;;;;;;11.83;6.57;;;5.80;99.90;;;;;;5012697;28;20478;-74
2021/12/18 07:58:52;;;;;;;12.67;7.27;;;5.80;99.90;;;;;;5026342;28;20272;-74
2021/12/18 08:01:18;;;;;;;18.17;7.80;;;5.80;99.90;;;;;;5011397;28;21018;-74
2021/12/18 08:03:44;;;;;;;15.73;8.60;;;5.80;99.90;;;;;;5020777;28;20456;-74
2021/12/18 08:06:10;;;;;;;15.10;8.17;;;5.80;99.90;;;;;;5013024;28;20449;-75
2021/12/18 08:08:36;;;;;;;14.87;7.90;;;5.80;99.90;;;;;;5011958;28;20219;-74
2021/12/18 08:11:02;;;;;;;14.10;7.10;;;5.80;99.90;;;;;;5027470;28;20569;-75
2021/12/18 08:13:27;;;;;;;11.03;6.97;;;5.70;99.90;;;;;;5028557;28;20550;-75
2021/12/18 08:15:53;;;;;;;16.40;7.40;;;5.80;99.90;;;;;;5012228;28;20459;-75
2021/12/18 08:18:19;;;;;;;13.53;6.87;;;5.70;99.90;;;;;;5012099;28;20247;-74
2021/12/18 08:20:45;;;;;;;13.83;6.73;;;5.80;99.90;;;;;;5029553;28;20485;-74
2021/12/18 08:23:10;;;;;;;12.43;7.20;;;5.70;99.90;;;;;;5007616;28;20311;-73
2021/12/18 08:25:37;;;;;;;13.47;7.27;;;5.70;99.90;;;;;;5029273;28;20293;-74
2021/12/18 08:28:04;;;;;;;14.47;7.60;;;5.80;99.90;;;;;;5011704;28;20216;-72
2021/12/18 08:30:32;;;;;;;10.50;6.90;;;5.80;99.90;;;;;;5010868;28;20491;-73
2021/12/18 08:32:59;;;;;;;10.07;5.77;;;5.70;99.90;;;;;;5010047;28;20459;-74
2021/12/18 08:35:26;;;;;;;12.70;6.63;;;5.80;99.90;;;;;;5009454;28;20566;-76
2021/12/18 08:37:52;;;;;;;11.07;6.23;;;5.70;99.90;;;;;;5012063;28;20472;-73
2021/12/18 08:40:18;;;;;;;10.27;6.00;;;5.70;99.90;;;;;;5029174;28;20455;-73
2021/12/18 08:42:44;;;;;;;15.00;6.87;;;5.70;99.90;;;;;;5011716;28;20478;-74
2021/12/18 08:45:11;;;;;;;10.47;6.50;;;5.70;99.90;;;;;;5012138;28;20224;-73
2021/12/18 08:47:37;;;;;;;12.27;6.17;;;5.70;99.90;;;;;;5029162;28;21038;-72
2021/12/18 08:50:04;;;;;;;12.50;6.77;;;5.70;99.90;;;;;;5028306;28;20475;-73
2021/12/18 08:52:30;;;;;;;11.80;6.57;;;5.70;99.90;;;;;;5011447;28;20459;-73
2021/12/18 08:54:58;;;;;;;12.80;6.70;;;5.60;99.90;;;;;;5028797;28;20472;-74
2021/12/18 08:57:24;;;;;;;13.27;6.37;;;5.70;99.90;;;;;;5011122;28;20220;-73
2021/12/18 08:59:49;;;;;;;10.10;6.30;;;5.70;99.90;;;;;;5028484;28;20486;-73
2021/12/18 09:02:15;;;;;;;9.87;5.83;;;5.70;99.90;;;;;;5025477;28;20300;-77
2021/12/18 09:04:41;;;;;;;12.53;6.97;;;5.70;99.90;;;;;;5018006;28;20229;-74
2021/12/18 09:07:07;;;;;;;14.27;7.30;;;5.70;99.90;;;;;;5023506;28;20303;-74
2021/12/18 09:09:33;;;;;;;13.27;6.30;;;5.60;99.90;;;;;;5025998;28;20227;-74
2021/12/18 09:11:58;;;;;;;16.60;7.47;;;5.70;99.90;;;;;;5027090;28;20464;-73
2021/12/18 09:14:24;;;;;;;11.60;5.67;;;5.70;99.90;;;;;;5014793;28;20349;-74
2021/12/18 09:16:52;;;;;;;10.90;6.73;;;5.70;99.90;;;;;;5011314;28;20220;-77
2021/12/18 09:19:18;;;;;;;12.80;5.77;;;5.70;99.90;;;;;;5029553;28;20239;-74
2021/12/18 09:21:43;;;;;;;10.77;5.27;;;5.70;99.90;;;;;;5011885;28;20467;-73
2021/12/18 09:24:09;;;;;;;12.13;7.07;;;5.70;99.90;;;;;;5012477;28;20255;-74
2021/12/18 09:26:35;;;;;;;13.40;7.33;;;5.70;99.90;;;;;;4995964;28;20227;-76
2021/12/18 09:29:00;;;;;;;10.60;5.90;;;5.70;99.90;;;;;;5010951;28;20251;-74
2021/12/18 09:31:27;;;;;;;14.50;7.57;;;5.80;99.90;;;;;;5011121;28;20251;-75
2021/12/18 09:33:53;;;;;;;13.90;7.83;;;5.80;99.90;;;;;;5010804;28;20656;-74
2021/12/18 09:36:19;;;;;;;11.40;7.03;;;5.80;99.90;;;;;;5012035;28;20538;-74
2021/12/18 09:38:45;;;;;;;12.80;6.70;;;5.70;99.90;;;;;;4994773;28;20553;-75
2021/12/18 09:41:10;;;;;;;16.53;7.47;;;5.70;99.90;;;;;;5011559;28;20530;-73
2021/12/18 09:43:37;;;;;;;18.53;6.87;;;5.70;99.90;;;;;;5011605;28;20216;-73
2021/12/18 09:46:10;;;;;;;11.40;6.50;;;5.70;99.90;;;;;;5026695;28;20451;-75
2021/12/18 09:48:37;;;;;;;12.10;6.30;;;5.70;99.90;;;;;;5009670;28;20485;-73
2021/12/18 09:51:08;;;;;;;13.60;6.53;;;5.70;99.90;;;;;;5011820;28;20566;-75
2021/12/18 09:53:35;;;;;;;12.20;6.30;;;5.80;99.90;;;;;;5029767;28;20459;-74
2021/12/18 09:56:02;;;;;;;10.87;5.60;;;5.80;99.90;;;;;;5011815;28;20827;-70
2021/12/18 09:58:28;;;;;;;17.10;6.90;;;5.80;99.90;;;;;;5011566;28;20454;-74
2021/12/18 10:00:54;;;;;;;10.03;5.67;;;5.90;99.90;;;;;;5010206;28;20479;-74
2021/12/18 10:03:19;;;;;;;12.30;5.90;;;5.80;99.90;;;;;;5027675;28;20228;-76
2021/12/18 10:05:45;;;;;;;9.43;5.47;;;5.80;99.90;;;;;;5004389;28;20213;-74
2021/12/18 10:08:17;;;;;;;15.00;6.53;;;5.90;99.90;;;;;;5020524;28;20730;-74
2021/12/18 10:11:09;;;;;;;14.13;7.40;;;5.90;99.90;;;;;;5026436;28;20815;-74
2021/12/18 10:13:56;;;;;;;12.87;6.50;;;5.90;99.90;;;;;;5015178;28;20520;-75
2021/12/18 10:16:23;;;;;;;16.30;8.27;;;5.90;99.90;;;;;;4986394;28;20538;-75
2021/12/18 10:18:50;;;;;;;12.10;7.20;;;5.90;99.90;;;;;;5030538;28;20551;-74
2021/12/18 10:21:19;;;;;;;15.07;8.53;;;5.90;99.90;;;;;;5032073;28;21013;-74
2021/12/18 10:23:47;;;;;;;13.80;6.97;;;5.90;99.90;;;;;;5000518;28;20459;-74
2021/12/18 10:26:35;;;;;;;19.17;9.00;;;5.90;99.90;;;;;;5013634;28;20896;-74
2021/12/18 10:29:03;;;;;;;15.83;7.60;;;6.00;99.90;;;;;;5023147;28;20484;-75
2021/12/18 10:31:45;;;;;;;13.17;6.87;;;5.90;99.90;;;;;;5013803;28;20467;-74
2021/12/18 10:34:20;;;;;;;17.17;8.53;;;6.00;99.90;;;;;;5028040;28;20458;-74
2021/12/18 10:37:11;;;;;;;11.20;6.83;;;6.00;99.90;;;;;;5013523;28;20447;-73
2021/12/18 10:39:40;;;;;;;13.03;6.53;;;6.00;99.90;;;;;;5030118;28;20467;-74
2021/12/18 10:42:31;;;;;;;12.50;6.67;;;6.00;99.90;;;;;;5029070;28;20452;-73
2021/12/18 10:45:15;;;;;;;13.73;7.03;;;6.00;99.90;;;;;;5005649;28;20463;-73
2021/12/18 10:48:01;;;;;;;10.77;7.40;;;6.00;99.90;;;;;;5030366;28;20456;-72
2021/12/18 10:50:31;;;;;;;19.63;9.97;;;6.00;99.90;;;;;;5031641;28;20535;-71
2021/12/18 10:53:02;;;;;;;16.50;10.33;;;6.00;99.90;;;;;;5029808;28;20487;-71
2021/12/18 10:55:35;;;;;;;14.93;10.03;;;6.00;99.90;;;;;;4992595;28;20451;-74
2021/12/18 10:58:02;;;;;;;13.17;8.33;;;6.00;99.90;;;;;;5013423;28;20468;-73
2021/12/18 11:00:46;;;;;;;15.73;9.20;;;6.00;99.90;;;;;;5030304;28;20470;-74
2021/12/18 11:03:28;;;;;;;16.60;9.43;;;6.00;99.90;;;;;;5030220;28;20973;-74
2021/12/18 11:06:20;;;;;;;14.17;8.50;;;6.00;99.90;;;;;;5025574;28;20447;-72
2021/12/18 11:09:06;;;;;;;19.73;9.97;;;6.00;99.90;;;;;;5008344;28;20462;-73
2021/12/18 11:14:32;;;;;;;14.43;8.57;;;6.00;99.90;;;;;;5019000;28;20463;-73
2021/12/18 11:17:00;;;;;;;15.77;9.43;;;6.00;99.90;;;;;;5010141;28;20464;-74
2021/12/18 11:19:28;;;;;;;12.77;7.97;;;6.00;99.90;;;;;;5030371;28;20578;-74
2021/12/18 11:22:07;;;;;;;19.17;7.87;;;6.00;99.90;;;;;;5013066;28;20459;-73
2021/12/18 11:24:41;;;;;;;14.70;7.80;;;6.00;99.90;;;;;;5025039;28;20455;-74
2021/12/18 11:27:18;;;;;;;13.20;7.20;;;6.00;99.90;;;;;;5029750;28;20637;-73
2021/12/18 11:29:51;;;;;;;21.40;8.90;;;6.00;99.90;;;;;;5012743;28;20538;-73
2021/12/18 11:32:23;;;;;;;16.00;8.20;;;6.00;99.90;;;;;;5012855;28;20606;-74
2021/12/18 11:34:50;;;;;;;14.47;8.80;;;6.00;99.90;;;;;;5012010;28;20494;-74
2021/12/18 11:37:18;;;;;;;15.40;8.10;;;6.00;99.90;;;;;;5029775;28;20470;-74
2021/12/18 11:39:45;;;;;;;16.67;9.20;;;6.00;99.90;;;;;;5011441;28;20983;-74
2021/12/18 11:42:12;;;;;;;13.30;8.90;;;6.00;99.90;;;;;;5012419;28;20447;-72
2021/12/18 11:44:53;;;;;;;14.50;9.10;;;6.10;99.90;;;;;;5012449;28;20482;-74
2021/12/18 11:47:29;;;;;;;14.97;9.03;;;6.10;99.90;;;;;;5011468;28;20535;-73
2021/12/18 11:50:06;;;;;;;11.30;7.63;;;6.10;99.90;;;;;;5026092;28;20458;-73
2021/12/18 11:53:10;;;;;;;14.40;7.10;;;6.10;99.90;;;;;;5012219;28;20533;-73
2021/12/18 11:55:51;;;;;;;12.77;8.13;;;6.10;99.90;;;;;;5011467;28;20447;-73
2021/12/18 11:58:24;;;;;;;18.07;9.10;;;6.10;99.90;;;;;;5027388;28;20463;-74
2021/12/18 12:01:02;;;;;;;16.03;9.30;;;6.10;99.90;;;;;;5024961;28;20483;-73
2021/12/18 12:03:40;;;;;;;15.27;9.67;;;6.10;99.90;;;;;;5024905;28;20528;-73
2021/12/18 12:06:30;;;;;;;15.83;8.50;;;6.10;99.90;;;;;;5016806;28;20558;-72
2021/12/18 12:09:35;;;;;;;16.17;9.10;;;6.10;99.90;;;;;;5004195;28;20474;-73
2021/12/18 12:12:06;;;;;;;14.53;8.30;;;6.10;99.90;;;;;;5028879;28;20487;-74
2021/12/18 12:14:34;;;;;;;13.13;8.30;;;6.10;99.90;;;;;;5009927;28;21002;-76
2021/12/18 12:17:02;;;;;;;17.87;10.17;;;6.10;99.90;;;;;;5006464;28;20491;-74
2021/12/18 12:19:34;;;;;;;15.07;8.33;;;6.10;99.90;;;;;;5028195;28;20498;-73
2021/12/18 12:22:01;;;;;;;13.03;7.60;;;6.10;99.90;;;;;;5028384;28;20464;-72
2021/12/18 12:24:30;;;;;;;13.97;8.00;;;6.10;99.90;;;;;;5028631;28;20551;-73
2021/12/18 12:27:32;;;;;;;13.73;8.60;;;6.10;99.90;;;;;;5010376;28;20451;-73
2021/12/18 12:30:04;;;;;;;12.53;8.13;;;6.10;99.90;;;;;;5008085;28;20455;-73
2021/12/18 12:32:31;;;;;;;17.07;9.80;;;6.10;99.90;;;;;;5010561;28;20470;-72
2021/12/18 12:34:59;;;;;;;14.97;8.40;;;6.10;99.90;;;;;;5010247;28;20495;-74
2021/12/18 12:37:35;;;;;;;15.33;8.47;;;6.20;99.90;;;;;;5029765;28;20469;-73
2021/12/18 12:40:09;;;;;;;13.73;8.23;;;6.10;99.90;;;;;;5008121;28;21007;-76
2021/12/18 12:42:36;;;;;;;17.37;8.80;;;6.20;99.90;;;;;;5010798;28;20447;-76
2021/12/18 12:45:08;;;;;;;15.53;7.10;;;6.20;99.90;;;;;;5027240;28;20899;-72
2021/12/18 12:47:34;;;;;;;15.30;7.77;;;6.20;99.90;;;;;;5012869;28;20501;-72
2021/12/18 12:50:04;;;;;;;13.77;7.60;;;6.10;99.90;;;;;;5011715;28;20521;-73
2021/12/18 12:52:30;;;;;;;17.03;8.43;;;6.20;99.90;;;;;;5011477;28;20444;-73
2021/12/18 12:54:59;;;;;;;15.67;9.37;;;6.20;99.90;;;;;;5011139;28;20470;-72
2021/12/18 12:57:30;;;;;;;19.10;9.73;;;6.10;99.90;;;;;;5021242;28;20443;-72
2021/12/18 12:59:58;;;;;;;12.30;8.60;;;6.20;99.90;;;;;;5011288;28;20475;-73
2021/12/18 13:02:29;;;;;;;15.00;9.27;;;6.10;99.90;;;;;;5010758;28;20444;-71
2021/12/18 13:05:04;;;;;;;18.67;8.80;;;6.10;99.90;;;;;;5027540;28;20482;-73
2021/12/18 13:07:30;;;;;;;18.57;10.80;;;6.20;99.90;;;;;;5011844;28;20463;-74
2021/12/18 13:09:56;;;;;;;16.13;9.50;;;6.20;99.90;;;;;;5011369;28;20451;-74
2021/12/18 13:12:21;;;;;;;20.83;11.50;;;6.20;99.90;;;;;;5026545;28;20838;-73
2021/12/18 13:14:47;;;;;;;24.93;13.23;;;6.20;99.90;;;;;;5026907;28;20312;-72
2021/12/18 13:17:17;;;;;;;26.57;11.97;;;6.10;99.90;;;;;;5029573;28;20235;-72
2021/12/18 13:20:04;;;;;;;19.50;12.37;;;6.20;99.90;;;;;;5010321;28;20471;-71
2021/12/18 13:22:33;;;;;;;19.43;10.60;;;6.20;99.90;;;;;;5011025;28;20466;-74
2021/12/18 13:25:02;;;;;;;21.27;10.10;;;6.10;99.90;;;;;;5027220;28;20529;-71
2021/12/18 13:27:27;;;;;;;16.37;9.90;;;6.20;99.90;;;;;;5028281;28;20962;-72
2021/12/18 13:30:08;;;;;;;17.90;9.70;;;6.20;99.90;;;;;;5029216;28;20520;-76
2021/12/18 13:32:34;;;;;;;20.93;9.87;;;6.20;99.90;;;;;;5026633;28;20311;-73
2021/12/18 13:34:59;;;;;;;18.47;10.90;;;6.10;99.90;;;;;;5013592;28;20547;-71
2021/12/18 13:37:25;;;;;;;18.53;10.10;;;6.20;99.90;;;;;;5029463;28;20228;-73
2021/12/18 13:39:53;;;;;;;19.83;10.50;;;6.20;99.90;;;;;;5010272;28;20231;-75
2021/12/18 13:42:23;;;;;;;20.50;11.67;;;6.20;99.90;;;;;;5026526;28;20231;-74
2021/12/18 13:45:04;;;;;;;21.93;12.30;;;6.20;99.90;;;;;;5010561;28;20547;-77
2021/12/18 13:47:41;;;;;;;17.80;10.30;;;6.20;99.90;;;;;;5014256;28;21104;-73